La Puebla del Rio, Spain
Current Conditions -  °F | °C
As of 10:00 PM on Friday 19 Dec 2014 (Local Time) from LEZL Reporting Station
Moderate Fog Moderate Fog  
Wind Chill: 48°   Ceiling: 100
Heat Index: 48°   Visibility: 0.09mi
Dew Point: 48°   Wind: 2mph
Humidity: 100%   Direction: NA
Pressure: 30.45"   Gusts: NA
Location:  37.27°N, 6.06°W
Report Text: LEZL 192100Z VRB02KT 0150 R27/0275N R09/0225N FG VV001 09/09 Q1031 NOSIG
Loading
Personal Weather Stations






























Interactive Weather Map New forecast layout! Learn more

10-Day Weather Forecast

Advertisements
Track Severe Weather on mobile